sensor_id;sensor_type;location;lat;lon;timestamp;pressure;altitude;pressure_sealevel;temperature;humidity
16580;BME280;8402;51.466;6.806;2023-01-24T00:01:54;103459.59;;;4.60;96.67
16580;BME280;8402;51.466;6.806;2023-01-24T00:04:24;103462.88;;;4.62;96.86
16580;BME280;8402;51.466;6.806;2023-01-24T00:06:54;103464.13;;;4.66;97.05
16580;BME280;8402;51.466;6.806;2023-01-24T00:09:24;103454.00;;;4.68;96.84
16580;BME280;8402;51.466;6.806;2023-01-24T00:11:57;103458.75;;;4.66;96.28
16580;BME280;8402;51.466;6.806;2023-01-24T00:14:27;103461.25;;;4.68;96.46
16580;BME280;8402;51.466;6.806;2023-01-24T00:16:57;103466.22;;;4.64;96.75
16580;BME280;8402;51.466;6.806;2023-01-24T00:19:27;103461.44;;;4.66;96.58
16580;BME280;8402;51.466;6.806;2023-01-24T00:21:57;103468.69;;;4.66;96.31
16580;BME280;8402;51.466;6.806;2023-01-24T00:24:27;103459.59;;;4.67;96.73
16580;BME280;8402;51.466;6.806;2023-01-24T00:27:02;103468.91;;;4.64;96.37
16580;BME280;8402;51.466;6.806;2023-01-24T00:29:32;103464.53;;;4.63;96.34
16580;BME280;8402;51.466;6.806;2023-01-24T00:32:02;103453.78;;;4.63;96.99
16580;BME280;8402;51.466;6.806;2023-01-24T00:34:32;103457.13;;;4.65;96.83
16580;BME280;8402;51.466;6.806;2023-01-24T00:37:02;103459.59;;;4.67;96.62
16580;BME280;8402;51.466;6.806;2023-01-24T00:39:32;103461.84;;;4.63;96.56
16580;BME280;8402;51.466;6.806;2023-01-24T00:42:05;103464.53;;;4.63;96.71
16580;BME280;8402;51.466;6.806;2023-01-24T00:44:35;103451.09;;;4.63;96.46
16580;BME280;8402;51.466;6.806;2023-01-24T00:47:05;103451.53;;;4.60;96.34
16580;BME280;8402;51.466;6.806;2023-01-24T00:49:35;103452.13;;;4.56;96.27
16580;BME280;8402;51.466;6.806;2023-01-24T00:52:05;103448.44;;;4.50;95.93
16580;BME280;8402;51.466;6.806;2023-01-24T00:54:35;103438.69;;;4.49;96.07
16580;BME280;8402;51.466;6.806;2023-01-24T00:57:07;103440.53;;;4.49;96.22
16580;BME280;8402;51.466;6.806;2023-01-24T00:59:39;103436.00;;;4.49;96.58
16580;BME280;8402;51.466;6.806;2023-01-24T01:02:11;103426.06;;;4.50;96.63
16580;BME280;8402;51.466;6.806;2023-01-24T01:04:41;103433.53;;;4.54;96.59
16580;BME280;8402;51.466;6.806;2023-01-24T01:07:11;103444.06;;;4.56;96.62
16580;BME280;8402;51.466;6.806;2023-01-24T01:09:41;103453.59;;;4.58;96.31
16580;BME280;8402;51.466;6.806;2023-01-24T01:12:13;103457.09;;;4.52;95.85
16580;BME280;8402;51.466;6.806;2023-01-24T01:14:43;103455.25;;;4.46;95.26
16580;BME280;8402;51.466;6.806;2023-01-24T01:17:13;103467.66;;;4.47;95.92
16580;BME280;8402;51.466;6.806;2023-01-24T01:19:43;103461.66;;;4.45;95.73
16580;BME280;8402;51.466;6.806;2023-01-24T01:22:13;103472.41;;;4.45;96.23
16580;BME280;8402;51.466;6.806;2023-01-24T01:24:43;103467.03;;;4.45;96.05
16580;BME280;8402;51.466;6.806;2023-01-24T01:27:16;103461.66;;;4.45;96.26
16580;BME280;8402;51.466;6.806;2023-01-24T01:29:46;103462.28;;;4.47;96.24
16580;BME280;8402;51.466;6.806;2023-01-24T01:32:16;103459.19;;;4.50;96.04
16580;BME280;8402;51.466;6.806;2023-01-24T01:34:45;103457.09;;;4.46;96.01
16580;BME280;8402;51.466;6.806;2023-01-24T01:37:15;103460.63;;;4.46;95.98
16580;BME280;8402;51.466;6.806;2023-01-24T01:39:45;103463.31;;;4.46;95.94
16580;BME280;8402;51.466;6.806;2023-01-24T01:42:18;103465.16;;;4.46;95.82
16580;BME280;8402;51.466;6.806;2023-01-24T01:44:49;103464.13;;;4.47;96.58
16580;BME280;8402;51.466;6.806;2023-01-24T01:47:24;103463.72;;;4.43;95.44
16580;BME280;8402;51.466;6.806;2023-01-24T01:50:04;103463.31;;;4.46;95.31
16580;BME280;8402;51.466;6.806;2023-01-24T01:52:37;103451.72;;;4.52;95.91
16580;BME280;8402;51.466;6.806;2023-01-24T01:55:11;103456.88;;;4.47;94.60
16580;BME280;8402;51.466;6.806;2023-01-24T01:57:48;103459.19;;;4.50;95.71
16580;BME280;8402;51.466;6.806;2023-01-24T02:00:22;103457.50;;;4.49;95.32
16580;BME280;8402;51.466;6.806;2023-01-24T02:02:57;103466.59;;;4.48;95.34
16580;BME280;8402;51.466;6.806;2023-01-24T02:05:50;103457.09;;;4.46;95.43
16580;BME280;8402;51.466;6.806;2023-01-24T02:08:21;103461.22;;;4.48;95.93
16580;BME280;8402;51.466;6.806;2023-01-24T02:10:52;103457.50;;;4.49;95.81
16580;BME280;8402;51.466;6.806;2023-01-24T02:13:40;103452.56;;;4.46;95.29
16580;BME280;8402;51.466;6.806;2023-01-24T02:16:15;103453.81;;;4.44;95.65
16580;BME280;8402;51.466;6.806;2023-01-24T02:18:43;103450.47;;;4.41;95.27
16580;BME280;8402;51.466;6.806;2023-01-24T02:21:15;103455.44;;;4.38;94.44
16580;BME280;8402;51.466;6.806;2023-01-24T02:23:50;103449.44;;;4.29;93.85
16580;BME280;8402;51.466;6.806;2023-01-24T02:26:27;103455.00;;;4.34;94.96
16580;BME280;8402;51.466;6.806;2023-01-24T02:29:00;103451.72;;;4.39;95.59
16580;BME280;8402;51.466;6.806;2023-01-24T02:31:53;103439.09;;;4.33;93.51
16580;BME280;8402;51.466;6.806;2023-01-24T02:34:24;103442.00;;;4.38;94.48
16580;BME280;8402;51.466;6.806;2023-01-24T02:36:56;103440.97;;;4.32;93.80
16580;BME280;8402;51.466;6.806;2023-01-24T02:39:30;103440.53;;;4.35;94.53
16580;BME280;8402;51.466;6.806;2023-01-24T02:42:06;103447.16;;;4.33;94.19
16580;BME280;8402;51.466;6.806;2023-01-24T02:44:44;103446.56;;;4.31;94.14
16580;BME280;8402;51.466;6.806;2023-01-24T02:47:16;103447.16;;;4.33;94.92
16580;BME280;8402;51.466;6.806;2023-01-24T02:49:45;103443.44;;;4.34;94.51
16580;BME280;8402;51.466;6.806;2023-01-24T02:52:15;103448.81;;;4.34;94.42
16580;BME280;8402;51.466;6.806;2023-01-24T02:54:59;103442.22;;;4.30;94.13
16580;BME280;8402;51.466;6.806;2023-01-24T02:57:31;103444.47;;;4.33;94.55
16580;BME280;8402;51.466;6.806;2023-01-24T03:00:14;103446.75;;;4.29;94.07
16580;BME280;8402;51.466;6.806;2023-01-24T03:02:44;103445.50;;;4.25;93.55
16580;BME280;8402;51.466;6.806;2023-01-24T03:05:14;103448.19;;;4.25;93.79
16580;BME280;8402;51.466;6.806;2023-01-24T03:07:43;103445.50;;;4.25;94.03
16580;BME280;8402;51.466;6.806;2023-01-24T03:10:16;103443.03;;;4.24;93.67
16580;BME280;8402;51.466;6.806;2023-01-24T03:12:48;103436.41;;;4.26;94.03
16580;BME280;8402;51.466;6.806;2023-01-24T03:15:30;103441.38;;;4.29;94.30
16580;BME280;8402;51.466;6.806;2023-01-24T03:18:13;103432.91;;;4.26;93.54
16580;BME280;8402;51.466;6.806;2023-01-24T03:20:55;103435.19;;;4.29;93.58
16580;BME280;8402;51.466;6.806;2023-01-24T03:23:37;103431.25;;;4.31;94.67
16580;BME280;8402;51.466;6.806;2023-01-24T03:26:20;103433.94;;;4.31;94.04
16580;BME280;8402;51.466;6.806;2023-01-24T03:29:05;103427.75;;;4.31;94.46
16580;BME280;8402;51.466;6.806;2023-01-24T03:31:47;103438.69;;;4.29;93.53
16580;BME280;8402;51.466;6.806;2023-01-24T03:34:30;103439.72;;;4.22;93.71
16580;BME280;8402;51.466;6.806;2023-01-24T03:37:12;103437.03;;;4.22;93.85
16580;BME280;8402;51.466;6.806;2023-01-24T03:39:42;103431.03;;;4.20;93.83
16580;BME280;8402;51.466;6.806;2023-01-24T03:42:25;103432.69;;;4.21;94.00
16580;BME280;8402;51.466;6.806;2023-01-24T03:44:58;103437.66;;;4.17;93.16
16580;BME280;8402;51.466;6.806;2023-01-24T03:47:28;103439.28;;;4.18;93.55
16580;BME280;8402;51.466;6.806;2023-01-24T03:49:58;103447.56;;;4.17;93.52
16580;BME280;8402;51.466;6.806;2023-01-24T03:52:40;103446.31;;;4.12;93.13
16580;BME280;8402;51.466;6.806;2023-01-24T03:55:10;103441.56;;;4.08;93.02
16580;BME280;8402;51.466;6.806;2023-01-24T03:57:40;103441.75;;;4.06;92.96
16580;BME280;8402;51.466;6.806;2023-01-24T04:00:16;103444.44;;;4.06;92.75
16580;BME280;8402;51.466;6.806;2023-01-24T04:02:46;103438.47;;;4.11;93.05
16580;BME280;8402;51.466;6.806;2023-01-24T04:05:16;103438.06;;;4.07;92.33
16580;BME280;8402;51.466;6.806;2023-01-24T04:07:48;103431.00;;;4.06;92.41
16580;BME280;8402;51.466;6.806;2023-01-24T04:10:18;103432.25;;;4.04;92.49
16580;BME280;8402;51.466;6.806;2023-01-24T04:12:48;103440.09;;;4.05;92.88
16580;BME280;8402;51.466;6.806;2023-01-24T04:15:22;103436.38;;;4.06;93.37
16580;BME280;8402;51.466;6.806;2023-01-24T04:17:54;103436.38;;;4.06;93.31
16580;BME280;8402;51.466;6.806;2023-01-24T04:20:26;103430.19;;;4.06;93.12
16580;BME280;8402;51.466;6.806;2023-01-24T04:22:59;103429.78;;;4.09;93.89
16580;BME280;8402;51.466;6.806;2023-01-24T04:25:29;103429.38;;;4.12;94.05
16580;BME280;8402;51.466;6.806;2023-01-24T04:27:59;103424.81;;;4.12;94.09
16580;BME280;8402;51.466;6.806;2023-01-24T04:30:32;103428.97;;;4.15;94.29
16580;BME280;8402;51.466;6.806;2023-01-24T04:33:02;103426.06;;;4.17;93.99
16580;BME280;8402;51.466;6.806;2023-01-24T04:35:32;103426.06;;;4.17;93.53
16580;BME280;8402;51.466;6.806;2023-01-24T04:38:03;103434.34;;;4.15;94.07
16580;BME280;8402;51.466;6.806;2023-01-24T04:40:33;103437.66;;;4.17;94.11
16580;BME280;8402;51.466;6.806;2023-01-24T04:43:06;103434.75;;;4.19;93.84
16580;BME280;8402;51.466;6.806;2023-01-24T04:45:38;103429.38;;;4.12;92.87
16580;BME280;8402;51.466;6.806;2023-01-24T04:48:09;103423.38;;;4.10;93.34
16580;BME280;8402;51.466;6.806;2023-01-24T04:50:39;103422.75;;;4.08;92.92
16580;BME280;8402;51.466;6.806;2023-01-24T04:53:09;103430.59;;;4.09;93.35
16580;BME280;8402;51.466;6.806;2023-01-24T04:55:38;103430.59;;;4.09;93.54
16580;BME280;8402;51.466;6.806;2023-01-24T04:58:08;103431.66;;;4.08;93.63
16580;BME280;8402;51.466;6.806;2023-01-24T05:00:41;103432.47;;;4.09;93.78
16580;BME280;8402;51.466;6.806;2023-01-24T05:03:11;103437.84;;;4.09;93.89
16580;BME280;8402;51.466;6.806;2023-01-24T05:05:41;103433.06;;;4.04;93.05
16580;BME280;8402;51.466;6.806;2023-01-24T05:08:11;103441.94;;;3.98;92.90
16580;BME280;8402;51.466;6.806;2023-01-24T05:10:41;103439.25;;;3.98;93.35
16580;BME280;8402;51.466;6.806;2023-01-24T05:13:11;103438.44;;;3.98;93.59
16580;BME280;8402;51.466;6.806;2023-01-24T05:15:48;103444.44;;;3.93;93.43
16580;BME280;8402;51.466;6.806;2023-01-24T05:18:19;103445.47;;;3.99;94.12
16580;BME280;8402;51.466;6.806;2023-01-24T05:20:51;103445.91;;;4.02;94.48
16580;BME280;8402;51.466;6.806;2023-01-24T05:23:20;103446.50;;;4.04;94.08
16580;BME280;8402;51.466;6.806;2023-01-24T05:25:50;103445.47;;;4.05;93.92
16580;BME280;8402;51.466;6.806;2023-01-24T05:28:20;103442.41;;;4.08;94.30
16580;BME280;8402;51.466;6.806;2023-01-24T05:30:52;103445.47;;;4.05;93.64
16580;BME280;8402;51.466;6.806;2023-01-24T05:33:22;103442.78;;;4.05;94.22
16580;BME280;8402;51.466;6.806;2023-01-24T05:35:57;103449.16;;;3.91;92.88
16580;BME280;8402;51.466;6.806;2023-01-24T05:38:27;103454.56;;;3.98;93.47
16580;BME280;8402;51.466;6.806;2023-01-24T05:40:59;103449.59;;;3.95;93.49
16580;BME280;8402;51.466;6.806;2023-01-24T05:43:30;103453.53;;;3.99;93.79
16580;BME280;8402;51.466;6.806;2023-01-24T05:46:04;103462.41;;;3.99;93.89
16580;BME280;8402;51.466;6.806;2023-01-24T05:48:35;103462.41;;;3.99;94.44
16580;BME280;8402;51.466;6.806;2023-01-24T05:51:06;103469.22;;;3.95;93.99
16580;BME280;8402;51.466;6.806;2023-01-24T05:53:38;103472.31;;;3.99;94.38
16580;BME280;8402;51.466;6.806;2023-01-24T05:56:12;103468.81;;;3.98;94.33
16580;BME280;8402;51.466;6.806;2023-01-24T05:58:43;103471.50;;;3.98;93.57
16580;BME280;8402;51.466;6.806;2023-01-24T06:01:18;103480.81;;;3.96;93.67
16580;BME280;8402;51.466;6.806;2023-01-24T06:03:50;103471.72;;;3.97;94.47
16580;BME280;8402;51.466;6.806;2023-01-24T06:06:22;103480.22;;;4.00;94.26
16580;BME280;8402;51.466;6.806;2023-01-24T06:08:52;103474.84;;;4.00;94.26
16580;BME280;8402;51.466;6.806;2023-01-24T06:11:24;103484.53;;;4.01;94.28
16580;BME280;8402;51.466;6.806;2023-01-24T06:13:55;103484.94;;;3.98;93.19
16580;BME280;8402;51.466;6.806;2023-01-24T06:16:28;103484.72;;;4.00;93.83
16580;BME280;8402;51.466;6.806;2023-01-24T06:18:58;103490.53;;;4.03;94.29
16580;BME280;8402;51.466;6.806;2023-01-24T06:21:38;103491.34;;;4.04;93.98
16580;BME280;8402;51.466;6.806;2023-01-24T06:24:17;103490.53;;;4.03;93.99
16580;BME280;8402;51.466;6.806;2023-01-24T06:26:48;103495.91;;;4.03;94.36
16580;BME280;8402;51.466;6.806;2023-01-24T06:29:20;103498.59;;;4.03;94.48
16580;BME280;8402;51.466;6.806;2023-01-24T06:32:05;103492.59;;;4.01;94.15
16580;BME280;8402;51.466;6.806;2023-01-24T06:37:37;103502.94;;;4.04;94.74
16580;BME280;8402;51.466;6.806;2023-01-24T06:40:16;103502.53;;;4.07;95.08
16580;BME280;8402;51.466;6.806;2023-01-24T06:42:48;103491.38;;;4.10;94.88
16580;BME280;8402;51.466;6.806;2023-01-24T06:45:19;103500.06;;;4.12;95.06
16580;BME280;8402;51.466;6.806;2023-01-24T06:47:52;103509.38;;;4.17;94.99
16580;BME280;8402;51.466;6.806;2023-01-24T06:50:25;103507.53;;;4.17;95.22
16580;BME280;8402;51.466;6.806;2023-01-24T06:52:58;103506.28;;;4.20;95.20
16580;BME280;8402;51.466;6.806;2023-01-24T06:55:28;103517.03;;;4.20;94.41
16580;BME280;8402;51.466;6.806;2023-01-24T06:57:58;103510.41;;;4.16;94.38
16580;BME280;8402;51.466;6.806;2023-01-24T07:00:29;103515.78;;;4.16;94.94
16580;BME280;8402;51.466;6.806;2023-01-24T07:03:03;103517.84;;;4.13;94.48
16580;BME280;8402;51.466;6.806;2023-01-24T07:05:35;103510.81;;;4.12;94.46
16580;BME280;8402;51.466;6.806;2023-01-24T07:08:09;103513.09;;;4.09;94.66
16580;BME280;8402;51.466;6.806;2023-01-24T07:10:47;103511.59;;;4.06;94.14
16580;BME280;8402;51.466;6.806;2023-01-24T07:13:17;103526.06;;;4.05;94.74
16580;BME280;8402;51.466;6.806;2023-01-24T07:15:47;103516.97;;;4.06;94.96
16580;BME280;8402;51.466;6.806;2023-01-24T07:18:20;103521.53;;;4.06;94.37
16580;BME280;8402;51.466;6.806;2023-01-24T07:20:51;103530.41;;;4.06;94.52
16580;BME280;8402;51.466;6.806;2023-01-24T07:23:22;103523.00;;;4.08;94.80
16580;BME280;8402;51.466;6.806;2023-01-24T07:25:55;103527.34;;;4.09;95.15
16580;BME280;8402;51.466;6.806;2023-01-24T07:28:25;103541.00;;;4.14;95.34
16580;BME280;8402;51.466;6.806;2023-01-24T07:30:55;103547.63;;;4.19;95.42
16580;BME280;8402;51.466;6.806;2023-01-24T07:33:28;103543.91;;;4.20;94.88
16580;BME280;8402;51.466;6.806;2023-01-24T07:35:58;103538.94;;;4.17;95.14
16580;BME280;8402;51.466;6.806;2023-01-24T07:38:28;103542.25;;;4.19;94.63
16580;BME280;8402;51.466;6.806;2023-01-24T07:40:58;103537.91;;;4.18;94.95
16580;BME280;8402;51.466;6.806;2023-01-24T07:43:28;103538.94;;;4.17;95.00
16580;BME280;8402;51.466;6.806;2023-01-24T07:45:58;103551.34;;;4.18;94.40
16580;BME280;8402;51.466;6.806;2023-01-24T07:48:31;103545.94;;;4.11;93.64
16580;BME280;8402;51.466;6.806;2023-01-24T07:51:01;103552.16;;;4.11;94.46
16580;BME280;8402;51.466;6.806;2023-01-24T07:53:32;103548.44;;;4.12;94.92
16580;BME280;8402;51.466;6.806;2023-01-24T07:56:02;103554.84;;;4.11;94.46
16580;BME280;8402;51.466;6.806;2023-01-24T07:58:40;103554.22;;;4.09;94.61
16580;BME280;8402;51.466;6.806;2023-01-24T08:01:16;103556.91;;;4.09;94.36
16580;BME280;8402;51.466;6.806;2023-01-24T08:03:49;103563.50;;;4.13;94.62
16580;BME280;8402;51.466;6.806;2023-01-24T08:06:19;103555.28;;;4.15;94.77
16580;BME280;8402;51.466;6.806;2023-01-24T08:08:49;103568.72;;;4.15;94.58
16580;BME280;8402;51.466;6.806;2023-01-24T08:11:19;103573.03;;;4.09;93.38
16580;BME280;8402;51.466;6.806;2023-01-24T08:13:49;103561.84;;;4.12;94.21
16580;BME280;8402;51.466;6.806;2023-01-24T08:16:19;103562.50;;;4.14;94.38
16580;BME280;8402;51.466;6.806;2023-01-24T08:18:58;103571.59;;;4.20;95.03
16580;BME280;8402;51.466;6.806;2023-01-24T08:21:27;103576.56;;;4.17;93.62
16580;BME280;8402;51.466;6.806;2023-01-24T08:23:57;103569.13;;;4.19;94.47
16580;BME280;8402;51.466;6.806;2023-01-24T08:26:27;103578.00;;;4.19;94.37
16580;BME280;8402;51.466;6.806;2023-01-24T08:28:59;103572.44;;;4.21;94.70
16580;BME280;8402;51.466;6.806;2023-01-24T08:31:29;103576.97;;;4.20;94.06
16580;BME280;8402;51.466;6.806;2023-01-24T08:34:02;103572.00;;;4.10;92.86
16580;BME280;8402;51.466;6.806;2023-01-24T08:36:32;103577.78;;;4.07;92.80
16580;BME280;8402;51.466;6.806;2023-01-24T08:39:02;103586.44;;;4.03;92.46
16580;BME280;8402;51.466;6.806;2023-01-24T08:41:33;103590.56;;;4.05;93.30
16580;BME280;8402;51.466;6.806;2023-01-24T08:44:03;103587.25;;;4.03;92.84
16580;BME280;8402;51.466;6.806;2023-01-24T08:46:34;103585.19;;;4.05;93.42
16580;BME280;8402;51.466;6.806;2023-01-24T08:49:06;103591.84;;;4.09;93.83
16580;BME280;8402;51.466;6.806;2023-01-24T08:51:36;103602.38;;;4.11;93.40
16580;BME280;8402;51.466;6.806;2023-01-24T08:54:07;103599.47;;;4.12;94.17
16580;BME280;8402;51.466;6.806;2023-01-24T08:56:37;103605.50;;;4.14;93.60
16580;BME280;8402;51.466;6.806;2023-01-24T08:59:07;103608.00;;;4.16;93.53
16580;BME280;8402;51.466;6.806;2023-01-24T09:01:37;103602.41;;;4.18;93.83
16580;BME280;8402;51.466;6.806;2023-01-24T09:04:11;103610.47;;;4.18;93.21
16580;BME280;8402;51.466;6.806;2023-01-24T09:06:41;103606.75;;;4.19;93.29
16580;BME280;8402;51.466;6.806;2023-01-24T09:09:11;103601.00;;;4.22;93.76
16580;BME280;8402;51.466;6.806;2023-01-24T09:11:41;103599.72;;;4.18;92.89
16580;BME280;8402;51.466;6.806;2023-01-24T09:14:12;103605.50;;;4.14;92.24
16580;BME280;8402;51.466;6.806;2023-01-24T09:16:42;103602.19;;;4.19;93.00
16580;BME280;8402;51.466;6.806;2023-01-24T09:19:14;103610.06;;;4.21;93.38
16580;BME280;8402;51.466;6.806;2023-01-24T09:21:44;103603.06;;;4.26;93.73
16580;BME280;8402;51.466;6.806;2023-01-24T09:24:19;103610.53;;;4.31;93.32
16580;BME280;8402;51.466;6.806;2023-01-24T09:26:48;103606.78;;;4.32;93.13
16580;BME280;8402;51.466;6.806;2023-01-24T09:29:18;103605.75;;;4.33;93.08
16580;BME280;8402;51.466;6.806;2023-01-24T09:31:48;103606.38;;;4.35;93.20
16580;BME280;8402;51.466;6.806;2023-01-24T09:34:24;103607.66;;;4.39;93.65
16580;BME280;8402;51.466;6.806;2023-01-24T09:36:54;103616.78;;;4.45;92.95
16580;BME280;8402;51.466;6.806;2023-01-24T09:39:24;103624.22;;;4.49;93.85
16580;BME280;8402;51.466;6.806;2023-01-24T09:41:59;103617.81;;;4.50;93.06
16580;BME280;8402;51.466;6.806;2023-01-24T09:44:46;103620.06;;;4.47;91.55
16580;BME280;8402;51.466;6.806;2023-01-24T09:47:20;103618.81;;;4.42;91.82
16580;BME280;8402;51.466;6.806;2023-01-24T09:49:58;103619.47;;;4.45;92.17
16580;BME280;8402;51.466;6.806;2023-01-24T09:52:33;103618.41;;;4.46;92.48
16580;BME280;8402;51.466;6.806;2023-01-24T09:55:09;103617.19;;;4.48;92.18
16580;BME280;8402;51.466;6.806;2023-01-24T09:57:48;103621.31;;;4.44;91.47
16580;BME280;8402;51.466;6.806;2023-01-24T10:00:24;103611.41;;;4.51;92.48
16580;BME280;8402;51.466;6.806;2023-01-24T10:02:55;103618.47;;;4.59;92.77
16580;BME280;8402;51.466;6.806;2023-01-24T10:05:35;103620.50;;;4.57;91.93
16580;BME280;8402;51.466;6.806;2023-01-24T10:08:19;103615.56;;;4.60;92.64
16580;BME280;8402;51.466;6.806;2023-01-24T10:10:53;103617.84;;;4.63;92.07
16580;BME280;8402;51.466;6.806;2023-01-24T10:13:44;103622.59;;;4.61;91.86
16580;BME280;8402;51.466;6.806;2023-01-24T10:16:42;103620.09;;;4.53;90.46
16580;BME280;8402;51.466;6.806;2023-01-24T10:19:26;103631.69;;;4.60;91.81
16580;BME280;8402;51.466;6.806;2023-01-24T10:22:30;103624.88;;;4.58;89.96
16580;BME280;8402;51.466;6.806;2023-01-24T10:25:10;103619.09;;;4.67;91.33
16580;BME280;8402;51.466;6.806;2023-01-24T10:27:45;103624.28;;;4.76;91.90
16580;BME280;8402;51.466;6.806;2023-01-24T10:30:22;103608.59;;;4.86;92.53
16580;BME280;8402;51.466;6.806;2023-01-24T10:32:56;103611.47;;;4.84;90.86
16580;BME280;8402;51.466;6.806;2023-01-24T10:35:30;103625.09;;;4.69;88.55
16580;BME280;8402;51.466;6.806;2023-01-24T10:38:09;103606.06;;;4.78;90.44
16580;BME280;8402;51.466;6.806;2023-01-24T10:40:49;103625.75;;;4.72;89.74
16580;BME280;8402;51.466;6.806;2023-01-24T10:43:22;103618.91;;;4.82;91.21
16580;BME280;8402;51.466;6.806;2023-01-24T10:46:05;103629.69;;;4.89;91.50
16580;BME280;8402;51.466;6.806;2023-01-24T10:48:42;103620.59;;;4.96;92.00
16580;BME280;8402;51.466;6.806;2023-01-24T10:51:14;103619.56;;;5.04;92.40
16580;BME280;8402;51.466;6.806;2023-01-24T10:53:48;103616.66;;;5.06;91.38
16580;BME280;8402;51.466;6.806;2023-01-24T10:56:20;103618.13;;;5.08;91.48
16580;BME280;8402;51.466;6.806;2023-01-24T10:59:03;103619.16;;;5.07;91.44
16580;BME280;8402;51.466;6.806;2023-01-24T11:01:37;103613.97;;;5.12;91.07
16580;BME280;8402;51.466;6.806;2023-01-24T11:04:19;103608.19;;;5.15;91.52
16580;BME280;8402;51.466;6.806;2023-01-24T11:06:51;103613.34;;;5.23;91.46
16580;BME280;8402;51.466;6.806;2023-01-24T11:09:29;103608.56;;;5.25;91.28
16580;BME280;8402;51.466;6.806;2023-01-24T11:12:01;103604.03;;;5.26;90.00
16580;BME280;8402;51.466;6.806;2023-01-24T11:14:33;103600.72;;;5.31;91.06
16580;BME280;8402;51.466;6.806;2023-01-24T11:17:04;103592.81;;;5.36;91.56
16580;BME280;8402;51.466;6.806;2023-01-24T11:19:58;103598.19;;;5.36;90.26
16580;BME280;8402;51.466;6.806;2023-01-24T11:22:28;103601.31;;;5.33;89.23
16580;BME280;8402;51.466;6.806;2023-01-24T11:25:13;103599.88;;;5.23;87.26
16580;BME280;8402;51.466;6.806;2023-01-24T11:27:47;103591.16;;;5.28;89.17
16580;BME280;8402;51.466;6.806;2023-01-24T11:30:18;103592.44;;;5.25;88.98
16580;BME280;8402;51.466;6.806;2023-01-24T11:32:59;103591.59;;;5.32;89.93
16580;BME280;8402;51.466;6.806;2023-01-24T11:35:34;103590.13;;;5.36;90.24
16580;BME280;8402;51.466;6.806;2023-01-24T11:38:19;103589.50;;;5.34;88.60
16580;BME280;8402;51.466;6.806;2023-01-24T11:41:10;103593.69;;;5.30;88.48
16580;BME280;8402;51.466;6.806;2023-01-24T11:46:53;103588.69;;;5.40;89.47
16580;BME280;8402;51.466;6.806;2023-01-24T11:49:39;103588.91;;;5.38;88.56
16580;BME280;8402;51.466;6.806;2023-01-24T11:52:26;103586.22;;;5.38;87.23
16580;BME280;8402;51.466;6.806;2023-01-24T11:55:02;103571.91;;;5.38;88.31
16580;BME280;8402;51.466;6.806;2023-01-24T11:57:44;103574.81;;;5.36;88.07
16580;BME280;8402;51.466;6.806;2023-01-24T12:00:27;103573.13;;;5.42;89.03
16580;BME280;8402;51.466;6.806;2023-01-24T12:03:14;103571.69;;;5.46;89.88
16580;BME280;8402;51.466;6.806;2023-01-24T12:06:01;103561.38;;;5.36;86.67
16580;BME280;8402;51.466;6.806;2023-01-24T12:08:53;103563.03;;;5.31;85.47
16580;BME280;8402;51.466;6.806;2023-01-24T12:11:33;103560.34;;;5.24;86.81
16580;BME280;8402;51.466;6.806;2023-01-24T12:17:18;103545.22;;;5.30;88.34
16580;BME280;8402;51.466;6.806;2023-01-24T12:20:06;103545.00;;;5.31;87.75
16580;BME280;8402;51.466;6.806;2023-01-24T12:22:57;103540.00;;;5.35;87.97
16580;BME280;8402;51.466;6.806;2023-01-24T12:25:32;103531.50;;;5.44;89.10
16580;BME280;8402;51.466;6.806;2023-01-24T12:28:05;103524.41;;;5.57;89.76
16580;BME280;8402;51.466;6.806;2023-01-24T12:30:41;103524.63;;;5.62;88.55
16580;BME280;8402;51.466;6.806;2023-01-24T12:33:21;103516.53;;;5.62;88.07
16580;BME280;8402;51.466;6.806;2023-01-24T12:35:55;103517.13;;;5.64;88.18
16580;BME280;8402;51.466;6.806;2023-01-24T12:38:29;103513.22;;;5.66;88.30
16580;BME280;8402;51.466;6.806;2023-01-24T12:41:08;103521.09;;;5.61;87.21
16580;BME280;8402;51.466;6.806;2023-01-24T12:43:49;103509.06;;;5.64;88.42
16580;BME280;8402;51.466;6.806;2023-01-24T12:46:27;103522.34;;;5.65;87.93
16580;BME280;8402;51.466;6.806;2023-01-24T12:49:07;103504.09;;;5.67;87.11
16580;BME280;8402;51.466;6.806;2023-01-24T12:51:45;103503.25;;;5.73;88.61
16580;BME280;8402;51.466;6.806;2023-01-24T12:54:19;103516.06;;;5.71;87.17
16580;BME280;8402;51.466;6.806;2023-01-24T12:56:55;103500.78;;;5.65;86.22
16580;BME280;8402;51.466;6.806;2023-01-24T12:59:29;103498.28;;;5.64;86.79
16580;BME280;8402;51.466;6.806;2023-01-24T13:02:22;103502.88;;;5.50;85.72
16580;BME280;8402;51.466;6.806;2023-01-24T13:05:02;103508.22;;;5.63;87.74
16580;BME280;8402;51.466;6.806;2023-01-24T13:07:41;103502.44;;;5.66;87.65
16580;BME280;8402;51.466;6.806;2023-01-24T13:10:20;103497.84;;;5.73;88.29
16580;BME280;8402;51.466;6.806;2023-01-24T13:12:53;103498.19;;;5.84;88.61
16580;BME280;8402;51.466;6.806;2023-01-24T13:15:26;103497.78;;;5.87;87.58
16580;BME280;8402;51.466;6.806;2023-01-24T13:18:11;103499.69;;;5.79;86.14
16580;BME280;8402;51.466;6.806;2023-01-24T13:21:00;103498.88;;;5.72;85.19
16580;BME280;8402;51.466;6.806;2023-01-24T13:23:39;103494.50;;;5.71;85.85
16580;BME280;8402;51.466;6.806;2023-01-24T13:26:37;103497.03;;;5.73;86.63
16580;BME280;8402;51.466;6.806;2023-01-24T13:29:25;103489.19;;;5.65;85.62
16580;BME280;8402;51.466;6.806;2023-01-24T13:32:05;103493.91;;;5.69;86.96
16580;BME280;8402;51.466;6.806;2023-01-24T13:34:42;103492.69;;;5.72;86.76
16580;BME280;8402;51.466;6.806;2023-01-24T13:37:16;103489.75;;;5.73;86.79
16580;BME280;8402;51.466;6.806;2023-01-24T13:39:49;103492.47;;;5.73;87.19
16580;BME280;8402;51.466;6.806;2023-01-24T13:42:33;103493.66;;;5.77;87.61
16580;BME280;8402;51.466;6.806;2023-01-24T13:51:35;103494.31;;;5.73;84.93
16580;BME280;8402;51.466;6.806;2023-01-24T13:54:19;103498.00;;;5.78;86.78
16580;BME280;8402;51.466;6.806;2023-01-24T13:57:10;103499.09;;;5.64;84.76
16580;BME280;8402;51.466;6.806;2023-01-24T14:00:00;103504.09;;;5.67;85.96
16580;BME280;8402;51.466;6.806;2023-01-24T14:02:33;103498.88;;;5.72;87.13
16580;BME280;8402;51.466;6.806;2023-01-24T14:11:38;103497.69;;;5.55;87.12